createdAt,value
2018-05-14T00:00:51.600Z,982.90
2018-05-14T00:01:51.746Z,982.86
2018-05-14T00:02:51.892Z,982.89
2018-05-14T00:03:52.044Z,982.89
2018-05-14T00:04:52.171Z,982.92
2018-05-14T00:05:52.319Z,982.85
2018-05-14T00:06:52.461Z,982.90
2018-05-14T00:07:52.599Z,982.91
2018-05-14T00:08:52.737Z,982.88
2018-05-14T00:09:52.882Z,982.86
2018-05-14T00:10:53.023Z,982.90
2018-05-14T00:11:53.165Z,982.90
2018-05-14T00:12:53.309Z,982.93
2018-05-14T00:13:53.443Z,982.91
2018-05-14T00:14:54.132Z,982.92
2018-05-14T00:15:53.664Z,982.91
2018-05-14T00:16:53.806Z,982.91
2018-05-14T00:17:53.944Z,982.97
2018-05-14T00:18:54.078Z,982.92
2018-05-14T00:19:54.220Z,982.94
2018-05-14T00:20:54.361Z,982.95
2018-05-14T00:21:54.504Z,982.91
2018-05-14T00:22:54.641Z,982.88
2018-05-14T00:23:54.783Z,982.91
2018-05-14T00:24:54.923Z,982.92
2018-05-14T00:25:55.066Z,982.89
2018-05-14T00:26:55.209Z,982.87
2018-05-14T00:27:55.344Z,982.90
2018-05-14T00:28:55.482Z,982.88
2018-05-14T00:29:55.625Z,982.89
2018-05-14T00:30:55.761Z,982.88
2018-05-14T00:31:55.906Z,982.87
2018-05-14T00:32:56.046Z,982.85
2018-05-14T00:33:56.192Z,982.86
2018-05-14T00:34:56.339Z,982.88
2018-05-14T00:35:56.482Z,982.84
2018-05-14T00:36:56.624Z,982.88
2018-05-14T00:37:56.767Z,982.87
2018-05-14T00:38:56.904Z,982.86
2018-05-14T00:39:57.052Z,982.87
2018-05-14T00:40:57.195Z,982.89
2018-05-14T00:41:57.335Z,982.89
2018-05-14T00:42:57.469Z,982.88
2018-05-14T00:43:57.610Z,982.88
2018-05-14T00:44:57.754Z,982.87
2018-05-14T00:45:57.891Z,982.87
2018-05-14T00:46:58.083Z,982.89
2018-05-14T00:47:58.219Z,982.88
2018-05-14T00:48:58.359Z,982.89
2018-05-14T00:49:58.507Z,982.83
2018-05-14T00:50:58.652Z,982.89
2018-05-14T00:51:58.790Z,982.90
2018-05-14T00:52:58.930Z,982.93
2018-05-14T00:53:59.073Z,982.86
2018-05-14T00:54:59.213Z,982.92
2018-05-14T00:55:59.352Z,982.89
2018-05-14T00:56:59.488Z,982.89
2018-05-14T00:57:59.627Z,982.91
2018-05-14T00:58:59.778Z,982.86
2018-05-14T00:59:59.917Z,982.88
2018-05-14T01:01:00.059Z,982.86
2018-05-14T01:02:00.205Z,982.89
2018-05-14T01:03:00.342Z,982.89
2018-05-14T01:04:00.486Z,982.88
2018-05-14T01:05:00.614Z,982.86
2018-05-14T01:06:00.760Z,982.85
2018-05-14T01:07:00.906Z,982.86
2018-05-14T01:08:01.046Z,982.86
2018-05-14T01:09:01.180Z,982.85
2018-05-14T01:10:01.328Z,982.89
2018-05-14T01:11:01.465Z,982.90
2018-05-14T01:12:01.604Z,982.90
2018-05-14T01:13:01.746Z,982.93
2018-05-14T01:14:01.891Z,982.92
2018-05-14T01:15:02.035Z,982.90
2018-05-14T01:16:02.170Z,982.89
2018-05-14T01:17:02.308Z,982.92
2018-05-14T01:18:02.450Z,982.91
2018-05-14T01:19:02.590Z,982.89
2018-05-14T01:20:02.819Z,982.88
2018-05-14T01:21:02.835Z,982.93
2018-05-14T01:22:03.619Z,982.89
2018-05-14T01:23:03.118Z,982.90
2018-05-14T01:24:03.262Z,982.92
2018-05-14T01:25:03.404Z,982.89
2018-05-14T01:26:03.541Z,982.92
2018-05-14T01:27:03.687Z,982.90
2018-05-14T01:28:03.835Z,982.89
2018-05-14T01:29:03.974Z,982.90
2018-05-14T01:30:04.114Z,982.91
2018-05-14T01:31:04.252Z,982.89
2018-05-14T01:32:04.391Z,982.88
2018-05-14T01:33:04.539Z,982.90
2018-05-14T01:34:04.674Z,982.91
2018-05-14T01:35:04.812Z,982.88
2018-05-14T01:36:04.955Z,982.93
2018-05-14T01:37:05.096Z,982.89
2018-05-14T01:38:05.236Z,982.92
2018-05-14T01:39:05.376Z,982.90
2018-05-14T01:40:05.518Z,982.89
2018-05-14T01:41:05.669Z,982.87
2018-05-14T01:42:05.806Z,982.86
2018-05-14T01:43:05.959Z,982.84
2018-05-14T01:44:06.101Z,982.93
2018-05-14T01:45:06.240Z,982.88
2018-05-14T01:46:06.412Z,982.89
2018-05-14T01:47:06.574Z,982.88
2018-05-14T01:48:06.709Z,982.87
2018-05-14T01:49:06.850Z,982.86
2018-05-14T01:50:06.991Z,982.90
2018-05-14T01:51:07.134Z,982.91
2018-05-14T01:52:07.268Z,982.86
2018-05-14T01:53:07.413Z,982.91
2018-05-14T01:54:07.550Z,982.90
2018-05-14T01:55:07.700Z,982.91
2018-05-14T01:56:07.840Z,982.93
2018-05-14T01:57:07.980Z,982.89
2018-05-14T01:58:08.127Z,982.90
2018-05-14T01:59:08.261Z,982.90
2018-05-14T02:00:08.404Z,982.88
2018-05-14T02:01:09.129Z,982.85
2018-05-14T02:02:08.668Z,982.84
2018-05-14T02:03:08.813Z,982.90
2018-05-14T02:04:08.967Z,982.88
2018-05-14T02:05:09.104Z,982.91
2018-05-14T02:06:09.241Z,982.91
2018-05-14T02:07:09.384Z,982.88
2018-05-14T02:08:09.522Z,982.91
2018-05-14T02:09:09.659Z,982.91
2018-05-14T02:10:09.796Z,982.94
2018-05-14T02:11:09.940Z,982.91
2018-05-14T02:12:10.077Z,982.91
2018-05-14T02:13:10.219Z,982.86
2018-05-14T02:14:10.359Z,982.86
2018-05-14T02:15:10.498Z,982.90
2018-05-14T02:16:10.642Z,982.90
2018-05-14T02:17:10.784Z,982.87
2018-05-14T02:18:10.918Z,982.88
2018-05-14T02:19:11.059Z,982.85
2018-05-14T02:20:11.202Z,982.89
2018-05-14T02:21:11.342Z,982.85
2018-05-14T02:22:11.481Z,982.92
2018-05-14T02:23:11.617Z,982.85
2018-05-14T02:24:11.758Z,982.88
2018-05-14T02:25:11.897Z,982.83
2018-05-14T02:26:12.037Z,982.85
2018-05-14T02:27:12.171Z,982.80
2018-05-14T02:28:12.312Z,982.80
2018-05-14T02:29:12.451Z,982.80
2018-05-14T02:30:12.621Z,982.83
2018-05-14T02:31:12.752Z,982.81
2018-05-14T02:32:12.895Z,982.83
2018-05-14T02:33:13.033Z,982.80
2018-05-14T02:34:13.168Z,982.84
2018-05-14T02:35:13.321Z,982.82
2018-05-14T02:36:13.475Z,982.83
2018-05-14T02:37:17.265Z,982.78
2018-05-14T02:38:13.777Z,982.82
2018-05-14T02:39:13.932Z,982.88
2018-05-14T02:40:14.072Z,982.86
2018-05-14T02:41:14.217Z,982.87
2018-05-14T02:42:14.393Z,982.84
2018-05-14T02:43:14.534Z,982.85
2018-05-14T02:44:14.678Z,982.83
2018-05-14T02:45:14.815Z,982.85
2018-05-14T02:46:14.975Z,982.85
2018-05-14T02:47:15.105Z,982.83
2018-05-14T02:48:15.238Z,982.85
2018-05-14T02:49:15.391Z,982.93
2018-05-14T02:50:15.578Z,982.90
2018-05-14T02:51:15.709Z,982.93
2018-05-14T02:52:15.842Z,982.94
2018-05-14T02:53:15.991Z,982.93
2018-05-14T02:54:16.155Z,982.95
2018-05-14T02:55:16.294Z,982.97
2018-05-14T02:56:16.435Z,982.96
2018-05-14T02:57:16.610Z,982.96
2018-05-14T02:58:16.741Z,982.97
2018-05-14T02:59:16.888Z,982.97
2018-05-14T03:00:17.029Z,982.99
2018-05-14T03:01:17.184Z,982.97
2018-05-14T03:02:17.324Z,982.95
2018-05-14T03:03:17.462Z,982.98
2018-05-14T03:04:17.597Z,982.99
2018-05-14T03:05:17.737Z,982.98
2018-05-14T03:06:17.973Z,982.97
2018-05-14T03:07:17.979Z,982.97
2018-05-14T03:08:18.118Z,982.96
2018-05-14T03:09:18.819Z,982.96
2018-05-14T03:10:18.402Z,982.99
2018-05-14T03:11:18.506Z,982.95
2018-05-14T03:12:18.652Z,982.98
2018-05-14T03:13:18.787Z,983.00
2018-05-14T03:14:18.936Z,982.98
2018-05-14T03:15:19.075Z,983.01
2018-05-14T03:16:19.219Z,983.03
2018-05-14T03:17:19.351Z,983.05
2018-05-14T03:18:19.529Z,983.05
2018-05-14T03:19:19.668Z,982.99
2018-05-14T03:20:19.813Z,983.05
2018-05-14T03:21:19.953Z,983.07
2018-05-14T03:22:20.092Z,983.09
2018-05-14T03:23:20.234Z,983.13
2018-05-14T03:24:20.395Z,983.12
2018-05-14T03:25:20.532Z,983.09
2018-05-14T03:26:20.670Z,983.10
2018-05-14T03:27:20.830Z,983.09
2018-05-14T03:28:20.969Z,983.13
2018-05-14T03:29:21.108Z,983.14
2018-05-14T03:30:21.251Z,983.13
2018-05-14T03:31:21.418Z,983.10
2018-05-14T03:32:21.551Z,983.10
2018-05-14T03:33:21.695Z,983.10
2018-05-14T03:34:21.832Z,983.12
2018-05-14T03:35:21.972Z,983.10
2018-05-14T03:36:22.126Z,983.11
2018-05-14T03:37:22.266Z,983.11
2018-05-14T03:38:22.400Z,983.12
2018-05-14T03:39:22.538Z,983.13
2018-05-14T03:40:22.732Z,983.11
2018-05-14T03:41:22.863Z,983.11
2018-05-14T03:42:22.993Z,983.14
2018-05-14T03:43:23.132Z,983.17
2018-05-14T03:44:23.272Z,983.13
2018-05-14T03:45:23.414Z,983.17
2018-05-14T03:46:23.549Z,983.17
2018-05-14T03:47:23.696Z,983.15
2018-05-14T03:48:23.831Z,983.15
2018-05-14T03:49:24.022Z,983.18
2018-05-14T03:50:24.155Z,983.18
2018-05-14T03:51:24.295Z,983.18
2018-05-14T03:52:24.430Z,983.17
2018-05-14T03:53:24.613Z,983.21
2018-05-14T03:54:24.854Z,983.20
2018-05-14T03:55:24.876Z,983.18
2018-05-14T03:56:25.015Z,983.23
2018-05-14T03:57:25.165Z,983.20
2018-05-14T03:58:25.303Z,983.23
2018-05-14T03:59:25.442Z,983.21
2018-05-14T04:00:25.576Z,983.21
2018-05-14T04:01:25.723Z,983.22
2018-05-14T04:02:25.913Z,983.19
2018-05-14T04:03:25.997Z,983.18
2018-05-14T04:04:26.165Z,983.18
2018-05-14T04:05:26.293Z,983.17
2018-05-14T04:06:26.437Z,983.17
2018-05-14T04:07:26.579Z,983.20
2018-05-14T04:08:26.727Z,983.16
2018-05-14T04:09:26.930Z,983.19
2018-05-14T04:10:27.089Z,983.24
2018-05-14T04:11:27.103Z,983.23
2018-05-14T04:12:27.241Z,983.21
2018-05-14T04:13:27.380Z,983.18
2018-05-14T04:14:27.521Z,983.19
2018-05-14T04:15:27.690Z,983.24
2018-05-14T04:16:27.816Z,983.22
2018-05-14T04:17:27.953Z,983.24
2018-05-14T04:18:28.088Z,983.26
2018-05-14T04:19:28.259Z,983.23
2018-05-14T04:20:28.489Z,983.24
2018-05-14T04:21:28.505Z,983.26
2018-05-14T04:22:28.643Z,983.23
2018-05-14T04:23:28.790Z,983.22
2018-05-14T04:24:29.052Z,983.25
2018-05-14T04:25:29.052Z,983.24
2018-05-14T04:26:29.189Z,983.26
2018-05-14T04:27:29.343Z,983.26
2018-05-14T04:28:29.476Z,983.24
2018-05-14T04:29:29.617Z,983.24
2018-05-14T04:30:29.760Z,983.25
2018-05-14T04:31:29.923Z,983.24
2018-05-14T04:32:30.060Z,983.30
2018-05-14T04:33:30.197Z,983.28
2018-05-14T04:34:30.336Z,983.31
2018-05-14T04:35:30.501Z,983.31
2018-05-14T04:36:30.637Z,983.31
2018-05-14T04:37:30.780Z,983.33
2018-05-14T04:38:30.915Z,983.33
2018-05-14T04:39:31.083Z,983.35
2018-05-14T04:40:31.285Z,983.32
2018-05-14T04:41:31.309Z,983.33
2018-05-14T04:42:31.440Z,983.32
2018-05-14T04:43:31.609Z,983.35
2018-05-14T04:44:31.746Z,983.33
2018-05-14T04:45:31.900Z,983.34
2018-05-14T04:46:32.037Z,983.35
2018-05-14T04:47:32.186Z,983.38
2018-05-14T04:48:32.359Z,983.39
2018-05-14T04:49:32.503Z,983.38
2018-05-14T04:50:32.639Z,983.40
2018-05-14T04:51:32.797Z,983.46
2018-05-14T04:52:32.939Z,983.43
2018-05-14T04:53:33.084Z,983.44
2018-05-14T04:54:33.215Z,983.47
2018-05-14T04:55:33.430Z,983.47
2018-05-14T04:56:33.520Z,983.50
2018-05-14T04:57:33.655Z,983.48
2018-05-14T04:58:33.795Z,983.50
2018-05-14T04:59:33.946Z,983.46
2018-05-14T05:00:34.083Z,983.46
2018-05-14T05:01:34.234Z,983.50
2018-05-14T05:02:34.379Z,983.48
2018-05-14T05:03:34.552Z,983.47
2018-05-14T05:04:34.720Z,983.51
2018-05-14T05:05:34.856Z,983.49
2018-05-14T05:06:34.999Z,983.51
2018-05-14T05:07:35.170Z,983.49
2018-05-14T05:08:35.323Z,983.51
2018-05-14T05:09:35.460Z,983.53
2018-05-14T05:10:35.602Z,983.53
2018-05-14T05:11:35.783Z,983.53
2018-05-14T05:12:35.898Z,983.56
2018-05-14T05:13:36.048Z,983.58
2018-05-14T05:14:36.193Z,983.58
2018-05-14T05:15:36.434Z,983.55
2018-05-14T05:16:36.446Z,983.57
2018-05-14T05:17:36.584Z,983.62
2018-05-14T05:18:36.745Z,983.62
2018-05-14T05:19:36.885Z,983.62
2018-05-14T05:20:37.025Z,983.62
2018-05-14T05:21:37.168Z,983.63
2018-05-14T05:22:37.324Z,983.59
2018-05-14T05:23:37.461Z,983.60
2018-05-14T05:24:37.601Z,983.60
2018-05-14T05:25:37.750Z,983.61
2018-05-14T05:26:37.887Z,983.56
2018-05-14T05:27:38.021Z,983.61
2018-05-14T05:28:38.170Z,983.62
2018-05-14T05:29:38.337Z,983.61
2018-05-14T05:30:38.475Z,983.62
2018-05-14T05:31:38.616Z,983.63
2018-05-14T05:32:38.758Z,983.65
2018-05-14T05:33:38.910Z,983.60
2018-05-14T05:34:39.121Z,983.62
2018-05-14T05:35:39.133Z,983.60
2018-05-14T05:36:39.275Z,983.65
2018-05-14T05:37:39.501Z,983.66
2018-05-14T05:38:39.658Z,983.70
2018-05-14T05:39:39.674Z,983.66
2018-05-14T05:40:39.805Z,983.68
2018-05-14T05:41:40.011Z,983.71
2018-05-14T05:42:40.093Z,983.67
2018-05-14T05:43:40.251Z,983.66
2018-05-14T05:44:40.375Z,983.66
2018-05-14T05:45:40.518Z,983.65
2018-05-14T05:46:40.659Z,983.66
2018-05-14T05:47:40.804Z,983.69
2018-05-14T05:48:40.944Z,983.69
2018-05-14T05:49:41.080Z,983.68
2018-05-14T05:50:41.218Z,983.67
2018-05-14T05:51:41.398Z,983.66
2018-05-14T05:52:41.527Z,983.69
2018-05-14T05:53:41.670Z,983.73
2018-05-14T05:54:41.831Z,983.70
2018-05-14T05:55:41.964Z,983.69
2018-05-14T05:56:42.117Z,983.74
2018-05-14T05:57:42.259Z,983.71
2018-05-14T05:58:42.458Z,983.68
2018-05-14T05:59:42.559Z,983.72
2018-05-14T06:00:42.700Z,983.72
2018-05-14T06:01:42.840Z,983.74
2018-05-14T06:02:43.002Z,983.74
2018-05-14T06:03:43.140Z,983.77
2018-05-14T06:04:43.285Z,983.73
2018-05-14T06:05:43.429Z,983.74
2018-05-14T06:06:43.574Z,983.74
2018-05-14T06:07:43.715Z,983.78
2018-05-14T06:08:43.861Z,983.80
2018-05-14T06:09:44.017Z,983.78
2018-05-14T06:10:44.175Z,983.77
2018-05-14T06:11:44.308Z,983.74
2018-05-14T06:12:44.450Z,983.81
2018-05-14T06:13:44.609Z,983.80
2018-05-14T06:14:44.749Z,983.81
2018-05-14T06:15:44.896Z,983.80
2018-05-14T06:16:45.036Z,983.79
2018-05-14T06:17:45.193Z,983.78
2018-05-14T06:18:45.331Z,983.79
2018-05-14T06:19:45.474Z,983.79
2018-05-14T06:20:45.613Z,983.83
2018-05-14T06:21:45.781Z,983.81
2018-05-14T06:22:45.913Z,983.80
2018-05-14T06:23:46.057Z,983.81
2018-05-14T06:24:46.198Z,983.81
2018-05-14T06:25:46.374Z,983.83
2018-05-14T06:26:46.471Z,983.81
2018-05-14T06:27:46.641Z,983.84
2018-05-14T06:28:46.756Z,983.81
2018-05-14T06:29:46.897Z,983.82
2018-05-14T06:30:47.048Z,983.80
2018-05-14T06:31:47.174Z,983.82
2018-05-14T06:32:47.344Z,983.82
2018-05-14T06:33:47.483Z,983.84
2018-05-14T06:34:47.624Z,983.83
2018-05-14T06:35:47.841Z,983.87
2018-05-14T06:36:47.930Z,983.86
2018-05-14T06:37:48.071Z,983.83
2018-05-14T06:38:48.217Z,983.85
2018-05-14T06:39:48.377Z,983.86
2018-05-14T06:40:48.516Z,983.86
2018-05-14T06:41:48.661Z,983.82
2018-05-14T06:42:48.829Z,983.82
2018-05-14T06:43:48.968Z,983.82
2018-05-14T06:44:49.106Z,983.84
2018-05-14T06:45:49.260Z,983.79
2018-05-14T06:46:49.397Z,983.83
2018-05-14T06:47:49.544Z,983.84
2018-05-14T06:48:49.678Z,983.86
2018-05-14T06:49:49.902Z,983.86
2018-05-14T06:50:50.003Z,983.86
2018-05-14T06:51:50.137Z,983.83
2018-05-14T06:52:50.282Z,983.85
2018-05-14T06:53:50.441Z,983.84
2018-05-14T06:54:50.578Z,983.85
2018-05-14T06:55:50.717Z,983.87
2018-05-14T06:56:50.863Z,983.87
2018-05-14T06:57:50.999Z,983.84
2018-05-14T06:58:51.136Z,983.86
2018-05-14T06:59:51.301Z,983.86
2018-05-14T07:00:51.438Z,983.89
2018-05-14T07:01:51.585Z,983.90
2018-05-14T07:02:51.749Z,983.90
2018-05-14T07:03:51.887Z,983.93
2018-05-14T07:04:52.025Z,983.91
2018-05-14T07:05:52.161Z,983.92
2018-05-14T07:06:52.331Z,983.94
2018-05-14T07:07:52.458Z,983.92
2018-05-14T07:08:52.625Z,983.95
2018-05-14T07:09:52.747Z,983.96
2018-05-14T07:10:52.944Z,983.96
2018-05-14T07:11:53.088Z,984.00
2018-05-14T07:12:53.218Z,983.96
2018-05-14T07:13:53.364Z,983.96
2018-05-14T07:14:53.524Z,984.01
2018-05-14T07:15:53.657Z,983.97
2018-05-14T07:16:53.800Z,983.97
2018-05-14T07:17:53.967Z,984.01
2018-05-14T07:18:54.107Z,983.99
2018-05-14T07:19:54.250Z,984.02
2018-05-14T07:20:54.391Z,983.99
2018-05-14T07:21:54.577Z,984.01
2018-05-14T07:22:54.788Z,983.98
2018-05-14T07:23:54.803Z,983.99
2018-05-14T07:24:55.017Z,984.00
2018-05-14T07:25:55.086Z,983.99
2018-05-14T07:26:55.231Z,984.00
2018-05-14T07:27:55.371Z,983.99
2018-05-14T07:28:55.511Z,984.02
2018-05-14T07:29:55.650Z,983.99
2018-05-14T07:30:55.795Z,984.01
2018-05-14T07:31:55.933Z,983.99
2018-05-14T07:32:56.077Z,984.00
2018-05-14T07:33:56.271Z,984.04
2018-05-14T07:34:56.408Z,983.99
2018-05-14T07:35:56.572Z,984.02
2018-05-14T07:36:56.686Z,983.98
2018-05-14T07:37:56.837Z,984.00
2018-05-14T07:38:56.978Z,984.00
2018-05-14T07:39:57.120Z,983.97
2018-05-14T07:40:57.259Z,984.00
2018-05-14T07:41:57.395Z,984.01
2018-05-14T07:42:57.536Z,983.96
2018-05-14T07:43:57.675Z,983.98
2018-05-14T07:44:57.817Z,983.97
2018-05-14T07:45:57.960Z,983.96
2018-05-14T07:46:58.104Z,983.96
2018-05-14T07:47:58.248Z,983.98
2018-05-14T07:48:58.411Z,983.99
2018-05-14T07:49:58.543Z,984.03
2018-05-14T07:50:58.689Z,984.02
2018-05-14T07:51:58.828Z,984.01
2018-05-14T07:52:58.975Z,983.99
2018-05-14T07:53:59.114Z,984.06
2018-05-14T07:54:59.254Z,984.03
2018-05-14T07:55:59.401Z,984.03
2018-05-14T07:56:59.547Z,984.07
2018-05-14T07:57:59.683Z,984.04
2018-05-14T07:58:59.971Z,984.04
2018-05-14T07:59:59.966Z,984.06
2018-05-14T08:01:00.107Z,984.08
2018-05-14T08:02:00.258Z,984.10
2018-05-14T08:03:00.398Z,984.09
2018-05-14T08:04:00.535Z,984.12
2018-05-14T08:05:00.675Z,984.10
2018-05-14T08:06:00.816Z,984.06
2018-05-14T08:07:00.958Z,984.07
2018-05-14T08:08:01.103Z,984.09
2018-05-14T08:09:01.243Z,984.05
2018-05-14T08:10:01.382Z,984.13
2018-05-14T08:11:01.529Z,984.10
2018-05-14T08:12:01.675Z,984.06
2018-05-14T08:13:01.816Z,984.07
2018-05-14T08:14:01.966Z,984.03
2018-05-14T08:15:02.104Z,984.07
2018-05-14T08:16:02.244Z,984.06
2018-05-14T08:17:02.394Z,984.04
2018-05-14T08:18:02.531Z,984.07
2018-05-14T08:19:02.672Z,984.02
2018-05-14T08:20:02.819Z,984.04
2018-05-14T08:21:02.959Z,984.06
2018-05-14T08:22:03.100Z,984.05
2018-05-14T08:23:03.244Z,984.06
2018-05-14T08:24:03.388Z,984.05
2018-05-14T08:25:03.531Z,984.03
2018-05-14T08:26:03.676Z,984.01
2018-05-14T08:27:03.817Z,984.05
2018-05-14T08:28:03.956Z,984.04
2018-05-14T08:29:04.102Z,984.01
2018-05-14T08:30:04.254Z,984.01
2018-05-14T08:31:04.399Z,984.01
2018-05-14T08:32:04.546Z,983.92
2018-05-14T08:33:04.687Z,984.04
2018-05-14T08:34:04.834Z,984.04
2018-05-14T08:35:04.979Z,984.04
2018-05-14T08:36:05.120Z,984.06
2018-05-14T08:37:05.360Z,984.08
2018-05-14T08:38:05.412Z,983.98
2018-05-14T08:39:05.561Z,984.04
2018-05-14T08:40:05.701Z,984.05
2018-05-14T08:41:05.841Z,984.07
2018-05-14T08:42:05.980Z,984.08
2018-05-14T08:43:06.124Z,984.08
2018-05-14T08:44:06.268Z,984.01
2018-05-14T08:45:06.415Z,984.07
2018-05-14T08:46:06.553Z,984.07
2018-05-14T08:47:06.852Z,984.06
2018-05-14T08:48:06.909Z,984.05
2018-05-14T08:49:06.985Z,984.09
2018-05-14T08:50:07.122Z,984.10
2018-05-14T08:51:07.269Z,984.09
2018-05-14T08:52:07.408Z,984.13
2018-05-14T08:53:07.556Z,984.11
2018-05-14T08:54:07.729Z,984.05
2018-05-14T08:55:07.841Z,984.09
2018-05-14T08:56:07.985Z,984.08
2018-05-14T08:57:08.143Z,984.09
2018-05-14T08:58:08.279Z,984.15
2018-05-14T08:59:08.425Z,984.10
2018-05-14T09:00:08.575Z,984.11
2018-05-14T09:01:08.712Z,984.12
2018-05-14T09:02:08.859Z,984.05
2018-05-14T09:03:09.013Z,984.08
2018-05-14T09:04:09.151Z,984.10
2018-05-14T09:05:09.301Z,984.12
2018-05-14T09:06:09.447Z,984.11
2018-05-14T09:07:09.594Z,984.11
2018-05-14T09:08:09.734Z,984.09
2018-05-14T09:09:09.889Z,984.08
2018-05-14T09:10:10.029Z,984.13
2018-05-14T09:11:10.174Z,984.07
2018-05-14T09:12:10.319Z,984.15
2018-05-14T09:13:10.464Z,984.07
2018-05-14T09:14:10.608Z,984.15
2018-05-14T09:15:10.751Z,984.14
2018-05-14T09:16:10.976Z,984.15
2018-05-14T09:17:11.038Z,984.15
2018-05-14T09:18:11.187Z,984.20
2018-05-14T09:19:11.330Z,984.12
2018-05-14T09:20:11.468Z,984.16
2018-05-14T09:21:11.613Z,984.17
2018-05-14T09:22:11.758Z,984.20
2018-05-14T09:23:11.899Z,984.16
2018-05-14T09:24:12.050Z,984.22
2018-05-14T09:25:12.184Z,984.17
2018-05-14T09:26:12.327Z,984.20
2018-05-14T09:27:12.458Z,984.21
2018-05-14T09:28:12.623Z,984.17
2018-05-14T09:29:12.772Z,984.22
2018-05-14T09:30:12.911Z,984.19
2018-05-14T09:31:13.066Z,984.21
2018-05-14T09:32:13.202Z,984.23
2018-05-14T09:33:13.342Z,984.20
2018-05-14T09:34:13.484Z,984.22
2018-05-14T09:35:13.629Z,984.26
2018-05-14T09:36:13.766Z,984.17
2018-05-14T09:37:13.984Z,984.17
2018-05-14T09:38:14.050Z,984.22
2018-05-14T09:39:14.191Z,984.21
2018-05-14T09:40:14.335Z,984.21
2018-05-14T09:41:14.478Z,984.20
2018-05-14T09:42:14.627Z,984.22
2018-05-14T09:43:14.763Z,984.25
2018-05-14T09:44:14.904Z,984.24
2018-05-14T09:45:15.045Z,984.20
2018-05-14T09:46:15.189Z,984.17
2018-05-14T09:47:15.335Z,984.18
2018-05-14T09:48:15.482Z,984.20
2018-05-14T09:49:15.620Z,984.21
2018-05-14T09:50:15.763Z,984.14
2018-05-14T09:51:15.913Z,984.22
2018-05-14T09:52:16.049Z,984.18
2018-05-14T09:53:16.189Z,984.23
2018-05-14T09:54:16.328Z,984.24
2018-05-14T09:55:16.474Z,984.25
2018-05-14T09:56:16.610Z,984.15
2018-05-14T09:57:16.783Z,984.23
2018-05-14T09:58:16.902Z,984.20
2018-05-14T09:59:17.039Z,984.21
2018-05-14T10:00:17.184Z,984.23
2018-05-14T10:01:17.327Z,984.21
2018-05-14T10:02:17.474Z,984.22
2018-05-14T10:03:17.616Z,984.23
2018-05-14T10:04:17.779Z,984.20
2018-05-14T10:05:17.921Z,984.21
2018-05-14T10:06:18.068Z,984.21
2018-05-14T10:07:18.207Z,984.26
2018-05-14T10:08:18.350Z,984.23
2018-05-14T10:09:18.517Z,984.24
2018-05-14T10:10:18.658Z,984.13
2018-05-14T10:11:18.801Z,984.19
2018-05-14T10:12:18.942Z,984.20
2018-05-14T10:13:19.084Z,984.18
2018-05-14T10:14:19.223Z,984.19
2018-05-14T10:15:19.959Z,984.22
2018-05-14T10:16:19.493Z,984.21
2018-05-14T10:17:19.639Z,984.24
2018-05-14T10:18:19.782Z,984.25
2018-05-14T10:19:19.945Z,984.20
2018-05-14T10:20:20.065Z,984.17
2018-05-14T10:21:20.222Z,984.19
2018-05-14T10:22:20.376Z,984.17
2018-05-14T10:23:20.518Z,984.17
2018-05-14T10:24:20.669Z,984.20
2018-05-14T10:25:20.871Z,984.27
2018-05-14T10:26:20.967Z,984.25
2018-05-14T10:27:21.113Z,984.26
2018-05-14T10:28:21.274Z,984.19
2018-05-14T10:29:21.411Z,984.23
2018-05-14T10:30:21.560Z,984.17
2018-05-14T10:31:21.730Z,984.23
2018-05-14T10:32:21.858Z,984.22
2018-05-14T10:33:21.998Z,984.22
2018-05-14T10:34:22.144Z,984.30
2018-05-14T10:35:22.306Z,984.25
2018-05-14T10:36:22.425Z,984.31
2018-05-14T10:37:22.575Z,984.33
2018-05-14T10:38:22.715Z,984.26
2018-05-14T10:39:22.886Z,984.30
2018-05-14T10:40:23.023Z,984.26
2018-05-14T10:41:23.166Z,984.26
2018-05-14T10:42:23.309Z,984.28
2018-05-14T10:43:23.482Z,984.29
2018-05-14T10:44:23.628Z,984.29
2018-05-14T10:45:23.765Z,984.29
2018-05-14T10:46:23.906Z,984.28
2018-05-14T10:47:24.065Z,984.26
2018-05-14T10:48:24.209Z,984.32
2018-05-14T10:49:24.355Z,984.28
2018-05-14T10:50:24.515Z,984.30
2018-05-14T10:51:24.653Z,984.24
2018-05-14T10:52:24.790Z,984.25
2018-05-14T10:53:24.968Z,984.22
2018-05-14T10:54:25.106Z,984.24
2018-05-14T10:55:25.244Z,984.19
2018-05-14T10:56:25.387Z,984.24
2018-05-14T10:57:25.543Z,984.31
2018-05-14T10:58:25.679Z,984.26
2018-05-14T10:59:25.833Z,984.31
2018-05-14T11:00:25.990Z,984.34
2018-05-14T11:01:26.138Z,984.24
2018-05-14T11:02:26.277Z,984.23
2018-05-14T11:03:26.423Z,984.29
2018-05-14T11:04:26.580Z,984.31
2018-05-14T11:05:26.720Z,984.33
2018-05-14T11:06:26.864Z,984.29
2018-05-14T11:07:27.000Z,984.30
2018-05-14T11:08:27.247Z,984.29
2018-05-14T11:09:27.326Z,984.33
2018-05-14T11:10:27.524Z,984.31
2018-05-14T11:11:27.647Z,984.32
2018-05-14T11:12:27.803Z,984.31
2018-05-14T11:13:27.935Z,984.33
2018-05-14T11:14:28.090Z,984.34
2018-05-14T11:15:28.244Z,984.35
2018-05-14T11:16:28.382Z,984.35
2018-05-14T11:17:28.527Z,984.31
2018-05-14T11:18:28.674Z,984.30
2018-05-14T11:19:28.840Z,984.34
2018-05-14T11:20:28.980Z,984.31
2018-05-14T11:21:29.122Z,984.41
2018-05-14T11:22:29.278Z,984.34
2018-05-14T11:23:29.460Z,984.31
2018-05-14T11:24:29.601Z,984.38
2018-05-14T11:25:29.740Z,984.30
2018-05-14T11:26:29.887Z,984.27
2018-05-14T11:27:30.040Z,984.31
2018-05-14T11:28:30.177Z,984.28
2018-05-14T11:29:30.335Z,984.19
2018-05-14T11:30:30.469Z,984.20
2018-05-14T11:31:30.642Z,984.25
2018-05-14T11:32:30.782Z,984.24
2018-05-14T11:33:30.921Z,984.27
2018-05-14T11:34:31.091Z,984.28
2018-05-14T11:35:31.263Z,984.17
2018-05-14T11:36:31.371Z,984.27
2018-05-14T11:37:31.517Z,984.26
2018-05-14T11:38:31.709Z,984.23
2018-05-14T11:39:31.823Z,984.31
2018-05-14T11:40:31.971Z,984.34
2018-05-14T11:41:32.971Z,984.28
2018-05-14T11:42:32.272Z,984.25
2018-05-14T11:43:32.410Z,984.28
2018-05-14T11:44:33.465Z,984.25
2018-05-14T11:45:32.701Z,984.33
2018-05-14T11:46:32.843Z,984.24
2018-05-14T11:47:32.992Z,984.32
2018-05-14T11:48:33.140Z,984.35
2018-05-14T11:49:33.284Z,984.31
2018-05-14T11:50:33.429Z,984.21
2018-05-14T11:51:33.567Z,984.27
2018-05-14T11:52:33.736Z,984.27
2018-05-14T11:53:33.887Z,984.20
2018-05-14T11:54:34.026Z,984.29
2018-05-14T11:55:34.175Z,984.34
2018-05-14T11:56:34.983Z,984.18
2018-05-14T11:57:34.483Z,984.25
2018-05-14T11:58:34.634Z,984.30
2018-05-14T11:59:34.779Z,984.34
2018-05-14T12:00:34.990Z,984.25
2018-05-14T12:01:35.051Z,984.35
2018-05-14T12:02:35.195Z,984.28
2018-05-14T12:03:35.353Z,984.28
2018-05-14T12:04:35.529Z,984.27
2018-05-14T12:05:35.664Z,984.35
2018-05-14T12:06:35.810Z,984.40
2018-05-14T12:07:35.958Z,984.34
2018-05-14T12:08:36.994Z,984.47
2018-05-14T12:11:08.826Z,984.30
2018-05-14T12:12:08.981Z,984.31
2018-05-14T12:13:09.118Z,984.34
2018-05-14T12:14:09.275Z,984.23
2018-05-14T12:15:09.417Z,984.29
2018-05-14T12:16:09.680Z,984.27
2018-05-14T12:17:09.761Z,984.30
2018-05-14T12:18:09.898Z,984.29
2018-05-14T12:19:10.016Z,984.21
2018-05-14T12:20:10.166Z,984.17
2018-05-14T12:21:10.308Z,984.24
2018-05-14T12:22:10.465Z,984.26
2018-05-14T12:23:10.608Z,984.28
2018-05-14T12:24:10.744Z,984.32
2018-05-14T12:25:10.889Z,984.34
2018-05-14T12:26:11.064Z,984.27
2018-05-14T12:27:11.201Z,984.28
2018-05-14T12:28:11.345Z,984.23
2018-05-14T12:29:11.505Z,984.30
2018-05-14T12:30:11.646Z,984.26
2018-05-14T12:31:11.794Z,984.28
2018-05-14T12:32:12.089Z,984.29